createdAt,value
2017-06-12T00:02:45.425Z,5.77
2017-06-12T00:05:13.772Z,4.10
2017-06-12T00:07:42.065Z,3.83
2017-06-12T00:10:10.402Z,3.83
2017-06-12T00:12:38.730Z,4.50
2017-06-12T00:15:07.792Z,3.90
2017-06-12T00:17:36.109Z,3.10
2017-06-12T00:20:04.418Z,5.20
2017-06-12T00:22:32.748Z,3.77
2017-06-12T00:25:01.045Z,4.60
2017-06-12T00:27:29.338Z,4.43
2017-06-12T00:29:57.684Z,4.00
2017-06-12T00:32:26.219Z,4.00
2017-06-12T00:34:54.516Z,4.50
2017-06-12T00:37:22.849Z,3.23
2017-06-12T00:39:51.153Z,4.03
2017-06-12T00:42:19.836Z,2.87
2017-06-12T00:44:48.143Z,4.70
2017-06-12T00:47:16.442Z,3.50
2017-06-12T00:49:44.771Z,4.43
2017-06-12T00:52:13.066Z,3.23
2017-06-12T00:54:41.404Z,4.40
2017-06-12T00:57:09.742Z,3.20
2017-06-12T00:59:38.053Z,3.40
2017-06-12T01:02:06.345Z,4.73
2017-06-12T01:04:34.678Z,3.00
2017-06-12T01:07:02.983Z,2.40
2017-06-12T01:09:33.769Z,3.27
2017-06-12T01:12:02.069Z,3.27
2017-06-12T01:14:30.370Z,2.87
2017-06-12T01:16:58.691Z,2.50
2017-06-12T01:19:27.765Z,2.80
2017-06-12T01:22:13.967Z,2.93
2017-06-12T01:24:42.287Z,2.73
2017-06-12T01:27:10.577Z,3.60
2017-06-12T01:29:38.914Z,3.80
2017-06-12T01:32:07.215Z,2.30
2017-06-12T01:34:35.572Z,4.90
2017-06-12T01:37:03.941Z,3.47
2017-06-12T01:39:32.312Z,3.60
2017-06-12T01:42:00.661Z,4.93
2017-06-12T01:44:28.959Z,6.30
2017-06-12T01:46:57.272Z,2.90
2017-06-12T01:49:25.612Z,3.33
2017-06-12T01:51:53.905Z,3.87
2017-06-12T01:54:22.271Z,2.50
2017-06-12T01:56:50.569Z,2.60
2017-06-12T01:59:18.866Z,2.80
2017-06-12T02:01:47.309Z,3.57
2017-06-12T02:04:15.608Z,2.37
2017-06-12T02:06:43.893Z,2.93
2017-06-12T02:09:12.218Z,3.47
2017-06-12T02:11:40.512Z,3.00
2017-06-12T02:14:08.841Z,2.70
2017-06-12T02:16:37.128Z,5.60
2017-06-12T02:19:05.461Z,2.90
2017-06-12T02:21:33.921Z,2.60
2017-06-12T02:24:02.272Z,2.60
2017-06-12T02:26:30.600Z,3.27
2017-06-12T02:28:58.893Z,3.50
2017-06-12T02:31:27.187Z,3.40
2017-06-12T02:33:55.510Z,2.30
2017-06-12T02:36:23.815Z,3.33
2017-06-12T02:38:52.145Z,2.47
2017-06-12T02:41:20.439Z,3.03
2017-06-12T02:43:48.803Z,3.20
2017-06-12T02:46:17.094Z,2.60
2017-06-12T02:48:45.430Z,2.43
2017-06-12T02:51:13.772Z,2.47
2017-06-12T02:53:42.076Z,2.50
2017-06-12T02:56:10.406Z,2.67
2017-06-12T02:58:38.748Z,3.00
2017-06-12T03:01:07.044Z,2.73
2017-06-12T03:03:35.393Z,2.60
2017-06-12T03:06:03.692Z,3.20
2017-06-12T03:08:32.078Z,3.60
2017-06-12T03:11:00.418Z,4.93
2017-06-12T03:13:28.752Z,3.77
2017-06-12T03:15:57.078Z,4.63
2017-06-12T03:18:25.379Z,4.47
2017-06-12T03:20:53.707Z,6.57
2017-06-12T03:23:22.001Z,5.63
2017-06-12T03:25:50.340Z,5.40
2017-06-12T03:28:18.650Z,6.73
2017-06-12T03:30:46.960Z,6.17
2017-06-12T03:33:15.297Z,6.20
2017-06-12T03:35:43.603Z,5.90
2017-06-12T03:38:12.735Z,6.93
2017-06-12T03:40:41.040Z,6.90
2017-06-12T03:43:09.334Z,6.20
2017-06-12T03:45:37.677Z,7.00
2017-06-12T03:48:05.976Z,6.80
2017-06-12T03:50:34.277Z,6.30
2017-06-12T03:53:03.204Z,7.43
2017-06-12T03:55:31.505Z,8.53
2017-06-12T03:57:59.852Z,7.43
2017-06-12T04:00:28.142Z,6.40
2017-06-12T04:02:56.498Z,7.90
2017-06-12T04:05:24.805Z,7.47
2017-06-12T04:07:53.099Z,6.93
2017-06-12T04:10:21.429Z,6.40
2017-06-12T04:12:49.730Z,7.23
2017-06-12T04:15:18.067Z,7.87
2017-06-12T04:17:46.371Z,6.03
2017-06-12T04:20:14.721Z,6.50
2017-06-12T04:22:43.023Z,6.67
2017-06-12T04:25:11.332Z,5.87
2017-06-12T04:27:39.669Z,7.53
2017-06-12T04:30:07.972Z,8.53
2017-06-12T04:32:36.315Z,7.30
2017-06-12T04:35:04.826Z,10.83
2017-06-12T04:37:33.889Z,7.83
2017-06-12T04:40:02.314Z,6.90
2017-06-12T04:42:31.387Z,6.73
2017-06-12T04:44:59.726Z,9.03
2017-06-12T04:47:32.033Z,7.43
2017-06-12T04:50:01.390Z,6.37
2017-06-12T04:52:29.715Z,8.03
2017-06-12T04:54:58.065Z,9.33
2017-06-12T04:57:26.373Z,4.90
2017-06-12T04:59:54.678Z,8.70
2017-06-12T05:02:23.004Z,11.00
2017-06-12T05:04:51.297Z,4.60
2017-06-12T05:07:19.641Z,8.73
2017-06-12T05:09:47.961Z,4.73
2017-06-12T05:12:16.482Z,4.27
2017-06-12T05:14:44.832Z,4.97
2017-06-12T05:17:13.161Z,4.83
2017-06-12T05:19:41.489Z,4.00
2017-06-12T05:22:09.802Z,4.43
2017-06-12T05:24:38.133Z,6.13
2017-06-12T05:27:06.432Z,7.20
2017-06-12T05:29:34.803Z,3.73
2017-06-12T05:32:03.126Z,4.10
2017-06-12T05:34:31.416Z,4.20
2017-06-12T05:36:59.747Z,6.47
2017-06-12T05:39:28.054Z,4.50
2017-06-12T05:41:56.405Z,9.67
2017-06-12T05:44:24.724Z,3.17
2017-06-12T05:46:58.284Z,3.50
2017-06-12T05:49:26.618Z,3.73
2017-06-12T05:51:54.962Z,2.83
2017-06-12T05:54:23.269Z,3.37
2017-06-12T05:56:51.569Z,3.87
2017-06-12T05:59:19.891Z,5.00
2017-06-12T06:01:48.208Z,4.13
2017-06-12T06:04:16.558Z,4.47
2017-06-12T06:06:44.913Z,3.97
2017-06-12T06:09:13.205Z,3.30
2017-06-12T06:11:41.531Z,3.93
2017-06-12T06:14:09.834Z,5.10
2017-06-12T06:16:38.174Z,5.93
2017-06-12T06:19:06.474Z,2.57
2017-06-12T06:21:34.766Z,3.00
2017-06-12T06:24:03.092Z,2.23
2017-06-12T06:26:31.443Z,1.40
2017-06-12T06:28:59.746Z,4.37
2017-06-12T06:31:28.042Z,5.33
2017-06-12T06:33:56.374Z,5.43
2017-06-12T06:36:24.711Z,2.40
2017-06-12T06:38:53.023Z,3.97
2017-06-12T06:41:21.376Z,4.50
2017-06-12T06:43:49.670Z,2.20
2017-06-12T06:46:17.986Z,1.97
2017-06-12T06:48:46.350Z,2.47
2017-06-12T06:51:14.666Z,3.47
2017-06-12T06:53:42.962Z,2.93
2017-06-12T06:56:11.300Z,4.33
2017-06-12T06:58:39.596Z,2.10
2017-06-12T07:01:07.969Z,2.00
2017-06-12T07:03:36.275Z,2.87
2017-06-12T07:06:04.573Z,2.90
2017-06-12T07:08:32.929Z,2.10
2017-06-12T07:11:01.227Z,3.33
2017-06-12T07:13:29.569Z,2.90
2017-06-12T07:15:57.866Z,2.10
2017-06-12T07:18:26.249Z,3.03
2017-06-12T07:20:54.555Z,2.47
2017-06-12T07:23:22.855Z,1.80
2017-06-12T07:25:51.204Z,1.73
2017-06-12T07:28:19.520Z,1.43
2017-06-12T07:30:47.833Z,2.63
2017-06-12T07:33:16.156Z,2.67
2017-06-12T07:35:44.466Z,2.60
2017-06-12T07:38:12.810Z,2.33
2017-06-12T07:40:41.110Z,1.47
2017-06-12T07:43:09.458Z,1.97
2017-06-12T07:45:37.750Z,2.70
2017-06-12T07:48:06.045Z,2.50
2017-06-12T07:50:34.372Z,1.33
2017-06-12T07:53:02.677Z,2.53
2017-06-12T07:55:31.093Z,1.10
2017-06-12T07:57:59.395Z,2.70
2017-06-12T08:00:27.695Z,1.93
2017-06-12T08:02:56.026Z,2.10
2017-06-12T08:05:24.401Z,2.20
2017-06-12T08:07:52.761Z,1.60
2017-06-12T08:10:21.098Z,3.73
2017-06-12T08:12:49.393Z,1.17
2017-06-12T08:15:17.844Z,2.03
2017-06-12T08:17:46.230Z,2.40
2017-06-12T08:20:14.544Z,3.13
2017-06-12T08:22:42.921Z,4.83
2017-06-12T08:25:11.229Z,0.77
2017-06-12T08:27:39.581Z,2.73
2017-06-12T08:30:07.881Z,1.67
2017-06-12T08:32:36.186Z,1.30
2017-06-12T08:35:05.040Z,1.13
2017-06-12T08:37:33.336Z,1.80
2017-06-12T08:40:01.642Z,1.27
2017-06-12T08:42:29.973Z,3.53
2017-06-12T08:44:58.277Z,1.87
2017-06-12T08:47:26.682Z,1.50
2017-06-12T08:49:55.088Z,1.50
2017-06-12T08:52:23.381Z,1.43
2017-06-12T08:54:51.725Z,2.50
2017-06-12T08:57:20.020Z,1.83
2017-06-12T08:59:48.321Z,1.47
2017-06-12T09:02:16.650Z,1.37
2017-06-12T09:04:44.949Z,3.07
2017-06-12T09:07:13.310Z,1.93
2017-06-12T09:09:41.614Z,1.30
2017-06-12T09:12:09.961Z,1.83
2017-06-12T09:14:38.264Z,1.90
2017-06-12T09:17:06.741Z,1.53
2017-06-12T09:19:35.086Z,1.17
2017-06-12T09:22:03.385Z,0.97
2017-06-12T09:24:31.709Z,1.03
2017-06-12T09:27:00.034Z,1.60
2017-06-12T09:29:28.377Z,1.27
2017-06-12T09:31:56.677Z,0.90
2017-06-12T09:34:24.982Z,2.77
2017-06-12T09:36:53.337Z,2.50
2017-06-12T09:39:21.636Z,1.37
2017-06-12T09:41:49.932Z,1.30
2017-06-12T09:44:18.274Z,4.90
2017-06-12T09:46:46.573Z,1.63
2017-06-12T09:49:14.872Z,1.23
2017-06-12T09:51:43.239Z,1.03
2017-06-12T09:54:11.661Z,1.00
2017-06-12T09:56:39.965Z,4.23
2017-06-12T09:59:08.272Z,2.40
2017-06-12T10:01:36.629Z,0.70
2017-06-12T10:04:04.925Z,0.80
2017-06-12T10:06:33.225Z,2.13
2017-06-12T10:09:01.567Z,1.90
2017-06-12T10:11:29.867Z,1.10
2017-06-12T10:13:58.202Z,0.70
2017-06-12T10:16:26.560Z,2.00
2017-06-12T10:18:54.861Z,1.37
2017-06-12T10:21:23.207Z,1.40
2017-06-12T10:23:51.509Z,0.80
2017-06-12T10:26:19.828Z,1.37
2017-06-12T10:28:48.174Z,1.63
2017-06-12T10:31:16.479Z,2.60
2017-06-12T10:33:44.785Z,1.57
2017-06-12T10:36:13.143Z,0.83
2017-06-12T10:38:41.442Z,1.07
2017-06-12T10:41:09.739Z,1.10
2017-06-12T10:43:38.073Z,2.77
2017-06-12T10:46:06.389Z,1.17
2017-06-12T10:48:35.588Z,1.40
2017-06-12T10:51:03.888Z,1.80
2017-06-12T10:53:32.235Z,1.13
2017-06-12T10:56:00.576Z,1.43
2017-06-12T10:58:28.878Z,0.63
2017-06-12T11:00:57.185Z,1.43
2017-06-12T11:03:25.524Z,1.73
2017-06-12T11:05:53.824Z,1.50
2017-06-12T11:08:22.161Z,1.53
2017-06-12T11:10:50.509Z,0.90
2017-06-12T11:13:18.810Z,1.07
2017-06-12T11:15:47.146Z,1.63
2017-06-12T11:18:15.498Z,1.00
2017-06-12T11:20:43.792Z,1.73
2017-06-12T11:23:12.089Z,1.77
2017-06-12T11:25:42.444Z,0.63
2017-06-12T11:28:10.740Z,1.73
2017-06-12T11:30:49.606Z,1.43
2017-06-12T11:33:18.724Z,0.80
2017-06-12T11:35:47.022Z,1.60
2017-06-12T11:38:15.396Z,2.43
2017-06-12T11:40:43.690Z,1.13
2017-06-12T11:43:11.990Z,1.43
2017-06-12T11:45:40.337Z,2.43
2017-06-12T11:48:08.651Z,2.30
2017-06-12T11:50:36.983Z,2.30
2017-06-12T11:53:05.670Z,0.67
2017-06-12T11:55:34.017Z,2.00
2017-06-12T11:58:02.340Z,0.70
2017-06-12T12:00:30.649Z,1.13
2017-06-12T12:02:59.012Z,1.27
2017-06-12T12:05:27.306Z,1.37
2017-06-12T12:07:55.622Z,1.10
2017-06-12T12:10:23.954Z,0.90
2017-06-12T12:12:52.290Z,1.57
2017-06-12T12:15:20.642Z,2.07
2017-06-12T12:17:48.944Z,2.40
2017-06-12T12:20:17.260Z,1.07
2017-06-12T12:22:45.593Z,3.40
2017-06-12T12:25:13.920Z,2.50
2017-06-12T12:27:42.425Z,2.70
2017-06-12T12:30:10.809Z,1.70
2017-06-12T12:32:39.105Z,1.23
2017-06-12T12:35:07.478Z,0.70
2017-06-12T12:37:35.787Z,4.27
2017-06-12T12:40:04.082Z,2.10
2017-06-12T12:42:32.422Z,1.60
2017-06-12T12:45:00.728Z,1.80
2017-06-12T12:47:29.025Z,1.10
2017-06-12T12:49:57.434Z,1.17
2017-06-12T12:52:25.783Z,0.97
2017-06-12T12:54:54.081Z,3.17
2017-06-12T12:57:22.432Z,2.17
2017-06-12T12:59:50.737Z,1.70
2017-06-12T13:02:19.083Z,2.40
2017-06-12T13:04:47.413Z,2.13
2017-06-12T13:07:15.721Z,1.40
2017-06-12T13:09:44.062Z,2.13
2017-06-12T13:12:12.368Z,2.60
2017-06-12T13:14:40.671Z,3.40
2017-06-12T13:17:09.025Z,1.27
2017-06-12T13:19:37.340Z,2.50
2017-06-12T13:22:05.652Z,0.97
2017-06-12T13:24:33.981Z,1.23
2017-06-12T13:27:02.280Z,0.80
2017-06-12T13:29:30.626Z,1.33
2017-06-12T13:31:58.921Z,0.90
2017-06-12T13:34:27.241Z,2.17
2017-06-12T13:36:55.580Z,2.63
2017-06-12T13:39:23.885Z,2.37
2017-06-12T13:41:52.397Z,1.37
2017-06-12T13:44:20.987Z,1.90
2017-06-12T13:46:49.329Z,1.23
2017-06-12T13:49:17.960Z,1.60
2017-06-12T13:51:46.529Z,1.70
2017-06-12T13:54:15.135Z,0.70
2017-06-12T13:56:43.433Z,1.57
2017-06-12T13:59:11.793Z,2.47
2017-06-12T14:01:40.301Z,2.43
2017-06-12T14:04:08.653Z,0.70
2017-06-12T14:06:37.679Z,0.73
2017-06-12T14:09:06.473Z,0.53
2017-06-12T14:11:34.823Z,1.33
2017-06-12T14:14:03.244Z,2.97
2017-06-12T14:16:31.798Z,2.60
2017-06-12T14:19:00.449Z,1.60
2017-06-12T14:21:28.747Z,1.60
2017-06-12T14:23:57.091Z,1.53
2017-06-12T14:26:25.393Z,3.27
2017-06-12T14:28:53.694Z,1.77
2017-06-12T14:31:22.037Z,1.73
2017-06-12T14:33:50.333Z,2.00
2017-06-12T14:36:18.635Z,0.57
2017-06-12T14:38:46.978Z,2.00
2017-06-12T14:41:15.345Z,1.43
2017-06-12T14:43:43.677Z,2.90
2017-06-12T14:46:11.969Z,2.70
2017-06-12T14:48:41.218Z,1.63
2017-06-12T14:51:09.994Z,3.33
2017-06-12T14:53:38.297Z,0.80
2017-06-12T14:56:06.609Z,1.03
2017-06-12T14:58:34.942Z,1.63
2017-06-12T15:01:03.238Z,1.10
2017-06-12T15:03:31.624Z,1.37
2017-06-12T15:05:59.924Z,2.10
2017-06-12T15:08:28.227Z,1.03
2017-06-12T15:10:56.581Z,1.63
2017-06-12T15:13:24.909Z,1.43
2017-06-12T15:15:53.221Z,1.87
2017-06-12T15:18:21.547Z,1.43
2017-06-12T15:20:49.882Z,1.23
2017-06-12T15:23:18.178Z,1.60
2017-06-12T15:25:46.512Z,5.80
2017-06-12T15:28:14.857Z,3.37
2017-06-12T15:30:43.164Z,2.07
2017-06-12T15:33:11.456Z,1.50
2017-06-12T15:35:39.806Z,1.00
2017-06-12T15:38:08.098Z,2.57
2017-06-12T15:40:36.392Z,5.33
2017-06-12T15:43:05.330Z,2.80
2017-06-12T15:45:33.625Z,1.80
2017-06-12T15:48:02.741Z,2.87
2017-06-12T15:50:31.046Z,1.70
2017-06-12T15:52:59.374Z,1.30
2017-06-12T15:55:27.675Z,6.07
2017-06-12T15:57:55.982Z,1.80
2017-06-12T16:00:24.301Z,1.47
2017-06-12T16:02:52.603Z,2.43
2017-06-12T16:05:20.969Z,1.63
2017-06-12T16:07:49.266Z,1.27
2017-06-12T16:10:17.652Z,1.67
2017-06-12T16:12:45.955Z,6.57
2017-06-12T16:15:14.253Z,3.20
2017-06-12T16:17:43.108Z,2.97
2017-06-12T16:20:11.413Z,2.40
2017-06-12T16:22:39.709Z,1.90
2017-06-12T16:25:08.450Z,3.13
2017-06-12T16:27:36.797Z,4.83
2017-06-12T16:30:05.093Z,5.53
2017-06-12T16:32:33.388Z,2.33
2017-06-12T16:35:01.741Z,2.90
2017-06-12T16:37:30.047Z,3.43
2017-06-12T16:39:58.341Z,1.20
2017-06-12T16:42:26.665Z,5.93
2017-06-12T16:44:55.011Z,2.30
2017-06-12T16:47:23.363Z,5.70
2017-06-12T16:49:51.665Z,3.30
2017-06-12T16:52:19.968Z,1.60
2017-06-12T16:54:48.412Z,5.27
2017-06-12T16:57:16.720Z,3.30
2017-06-12T16:59:45.021Z,2.33
2017-06-12T17:02:13.375Z,4.63
2017-06-12T17:04:42.433Z,3.57
2017-06-12T17:07:10.746Z,6.47
2017-06-12T17:09:39.098Z,4.10
2017-06-12T17:12:07.407Z,4.03
2017-06-12T17:14:35.697Z,3.23
2017-06-12T17:17:04.374Z,5.60
2017-06-12T17:19:32.677Z,2.20
2017-06-12T17:22:00.973Z,3.87
2017-06-12T17:24:30.523Z,6.13
2017-06-12T17:26:58.835Z,2.07
2017-06-12T17:29:27.173Z,3.97
2017-06-12T17:31:55.505Z,4.43
2017-06-12T17:34:23.816Z,3.80
2017-06-12T17:36:52.152Z,3.73
2017-06-12T17:39:20.453Z,2.80
2017-06-12T17:41:49.086Z,2.50
2017-06-12T17:44:17.418Z,4.00
2017-06-12T17:46:46.617Z,2.63
2017-06-12T17:49:14.926Z,4.50
2017-06-12T17:51:43.233Z,2.60
2017-06-12T17:54:11.569Z,2.93
2017-06-12T17:56:39.864Z,4.20
2017-06-12T17:59:08.418Z,2.80
2017-06-12T18:01:37.061Z,3.53
2017-06-12T18:04:05.363Z,2.63
2017-06-12T18:06:34.505Z,4.63
2017-06-12T18:09:02.812Z,4.53
2017-06-12T18:11:31.117Z,3.33
2017-06-12T18:13:59.667Z,4.90
2017-06-12T18:16:27.983Z,3.40
2017-06-12T18:18:56.544Z,6.60
2017-06-12T18:21:24.846Z,4.23
2017-06-12T18:23:53.157Z,7.60
2017-06-12T18:26:21.668Z,3.53
2017-06-12T18:28:49.969Z,3.60
2017-06-12T18:31:18.270Z,4.73
2017-06-12T18:33:46.884Z,3.83
2017-06-12T18:36:15.204Z,2.73
2017-06-12T18:38:43.525Z,2.67
2017-06-12T18:41:12.013Z,4.27
2017-06-12T18:43:40.319Z,4.40
2017-06-12T18:46:08.621Z,2.63
2017-06-12T18:48:36.960Z,2.43
2017-06-12T18:51:05.257Z,1.90
2017-06-12T18:53:33.549Z,3.83
2017-06-12T18:56:01.891Z,4.00
2017-06-12T18:58:30.208Z,5.30
2017-06-12T19:00:58.517Z,2.40
2017-06-12T19:03:26.884Z,3.23
2017-06-12T19:05:55.193Z,3.10
2017-06-12T19:08:23.519Z,2.90
2017-06-12T19:10:51.857Z,2.33
2017-06-12T19:13:20.153Z,2.67
2017-06-12T19:15:49.252Z,4.70
2017-06-12T19:18:17.572Z,3.80
2017-06-12T19:20:45.907Z,2.93
2017-06-12T19:23:14.219Z,10.53
2017-06-12T19:25:44.249Z,4.30
2017-06-12T19:28:12.633Z,4.87
2017-06-12T19:30:41.204Z,7.50
2017-06-12T19:33:09.584Z,5.63
2017-06-12T19:35:37.895Z,4.93
2017-06-12T19:38:06.247Z,6.50
2017-06-12T19:40:34.552Z,4.17
2017-06-12T19:43:02.859Z,2.83
2017-06-12T19:45:31.184Z,2.80
2017-06-12T19:47:59.480Z,2.90
2017-06-12T19:50:27.819Z,4.03
2017-06-12T19:52:56.164Z,4.43
2017-06-12T19:55:24.465Z,7.70
2017-06-12T19:57:53.573Z,3.27
2017-06-12T20:00:21.883Z,3.90
2017-06-12T20:02:50.178Z,5.10
2017-06-12T20:05:18.524Z,4.90
2017-06-12T20:07:49.737Z,2.70
2017-06-12T20:10:18.147Z,3.13
2017-06-12T20:12:46.442Z,3.90
2017-06-12T20:15:15.101Z,6.90
2017-06-12T20:17:43.430Z,6.27
2017-06-12T20:20:11.735Z,1.90
2017-06-12T20:22:40.213Z,2.80
2017-06-12T20:25:08.566Z,2.77
2017-06-12T20:27:36.865Z,3.70
2017-06-12T20:30:05.201Z,3.70
2017-06-12T20:32:34.350Z,3.70
2017-06-12T20:35:02.770Z,4.70
2017-06-12T20:37:31.076Z,2.43
2017-06-12T20:39:59.389Z,6.70
2017-06-12T20:42:28.490Z,4.43
2017-06-12T20:44:57.117Z,3.40
2017-06-12T20:47:25.506Z,2.47
2017-06-12T20:49:53.969Z,4.00
2017-06-12T20:52:22.286Z,5.43
2017-06-12T20:54:50.617Z,4.93
2017-06-12T20:57:18.922Z,3.67
2017-06-12T20:59:48.394Z,3.10
2017-06-12T21:02:16.812Z,4.93
2017-06-12T21:04:45.550Z,4.03
2017-06-12T21:07:13.861Z,7.73
2017-06-12T21:09:42.222Z,2.83
2017-06-12T21:12:10.580Z,3.57
2017-06-12T21:14:39.493Z,6.23
2017-06-12T21:17:08.145Z,3.63
2017-06-12T21:19:37.253Z,4.53
2017-06-12T21:22:05.955Z,1.30
2017-06-12T21:24:34.330Z,5.30
2017-06-12T21:27:03.131Z,3.40
2017-06-12T21:29:31.427Z,4.60
2017-06-12T21:31:59.753Z,4.33
2017-06-12T21:34:28.333Z,2.33
2017-06-12T21:36:57.428Z,9.23
2017-06-12T21:39:27.219Z,3.27
2017-06-12T21:41:55.822Z,3.60
2017-06-12T21:44:24.157Z,3.30
2017-06-12T21:46:52.719Z,3.13
2017-06-12T21:49:21.950Z,5.10
2017-06-12T21:51:50.295Z,3.47
2017-06-12T21:54:18.662Z,6.30
2017-06-12T21:56:46.973Z,4.40
2017-06-12T21:59:15.301Z,4.50
2017-06-12T22:01:43.603Z,3.70
2017-06-12T22:04:12.734Z,5.40
2017-06-12T22:06:41.029Z,5.40
2017-06-12T22:09:09.325Z,2.67
2017-06-12T22:11:37.698Z,3.90
2017-06-12T22:14:06.035Z,5.53
2017-06-12T22:16:34.370Z,2.90
2017-06-12T22:19:02.974Z,3.13
2017-06-12T22:21:31.301Z,1.90
2017-06-12T22:23:59.730Z,3.30
2017-06-12T22:26:28.057Z,2.70
2017-06-12T22:28:56.408Z,3.57
2017-06-12T22:31:24.719Z,3.23
2017-06-12T22:33:53.065Z,2.43
2017-06-12T22:36:21.369Z,3.03
2017-06-12T22:38:49.672Z,4.13
2017-06-12T22:41:18.036Z,4.13
2017-06-12T22:43:46.338Z,3.20
2017-06-12T22:46:14.674Z,6.50
2017-06-12T22:48:42.976Z,2.97
2017-06-12T22:51:11.564Z,1.40
2017-06-12T22:53:39.965Z,2.93
2017-06-12T22:56:09.070Z,7.00
2017-06-12T22:58:37.367Z,3.00
2017-06-12T23:01:05.700Z,3.63
2017-06-12T23:03:34.016Z,2.67
2017-06-12T23:06:03.175Z,4.10
2017-06-12T23:08:31.507Z,2.13
2017-06-12T23:10:59.813Z,3.27
2017-06-12T23:13:28.161Z,2.73
2017-06-12T23:15:56.469Z,3.77
2017-06-12T23:18:24.852Z,1.43
2017-06-12T23:20:53.180Z,4.67
2017-06-12T23:23:21.513Z,3.60
2017-06-12T23:25:55.361Z,5.13
2017-06-12T23:28:23.662Z,2.90
2017-06-12T23:30:52.023Z,3.80
2017-06-12T23:33:20.322Z,1.93
2017-06-12T23:35:48.617Z,2.03
2017-06-12T23:38:16.949Z,3.50
2017-06-12T23:40:45.279Z,2.53
2017-06-12T23:43:13.680Z,5.17
2017-06-12T23:45:41.982Z,2.80
2017-06-12T23:48:10.394Z,3.27
2017-06-12T23:50:38.697Z,3.23
2017-06-12T23:53:06.989Z,2.57
2017-06-12T23:55:35.334Z,2.87
2017-06-12T23:58:03.635Z,3.80
